sensor_id;sensor_type;location;lat;lon;timestamp;P1;durP1;ratioP1;P2;durP2;ratioP2
3781;SDS011;6881;49.962;7.718;2023-06-22T00:00:49;9.13;;;8.20;;
3781;SDS011;6881;49.962;7.718;2023-06-22T00:03:16;9.70;;;8.70;;
3781;SDS011;6881;49.962;7.718;2023-06-22T00:05:42;9.90;;;8.90;;
3781;SDS011;6881;49.962;7.718;2023-06-22T00:08:08;8.70;;;7.80;;
3781;SDS011;6881;49.962;7.718;2023-06-22T00:10:33;11.60;;;9.70;;
3781;SDS011;6881;49.962;7.718;2023-06-22T00:12:58;10.20;;;8.37;;
3781;SDS011;6881;49.962;7.718;2023-06-22T00:15:23;10.40;;;9.10;;
3781;SDS011;6881;49.962;7.718;2023-06-22T00:17:49;10.57;;;9.27;;
3781;SDS011;6881;49.962;7.718;2023-06-22T00:20:15;9.83;;;8.83;;
3781;SDS011;6881;49.962;7.718;2023-06-22T00:22:41;10.27;;;9.17;;
3781;SDS011;6881;49.962;7.718;2023-06-22T00:25:08;10.60;;;9.43;;
3781;SDS011;6881;49.962;7.718;2023-06-22T00:27:33;10.30;;;9.30;;
3781;SDS011;6881;49.962;7.718;2023-06-22T00:29:59;13.17;;;9.43;;
3781;SDS011;6881;49.962;7.718;2023-06-22T00:32:24;12.10;;;10.33;;
3781;SDS011;6881;49.962;7.718;2023-06-22T00:34:50;14.27;;;10.60;;
3781;SDS011;6881;49.962;7.718;2023-06-22T00:37:15;10.70;;;9.70;;
3781;SDS011;6881;49.962;7.718;2023-06-22T00:39:41;12.13;;;9.50;;
3781;SDS011;6881;49.962;7.718;2023-06-22T00:42:06;14.80;;;10.57;;
3781;SDS011;6881;49.962;7.718;2023-06-22T00:44:31;12.70;;;10.30;;
3781;SDS011;6881;49.962;7.718;2023-06-22T00:46:57;14.60;;;12.40;;
3781;SDS011;6881;49.962;7.718;2023-06-22T00:49:23;13.23;;;11.83;;
3781;SDS011;6881;49.962;7.718;2023-06-22T00:51:48;13.97;;;12.10;;
3781;SDS011;6881;49.962;7.718;2023-06-22T00:54:13;16.47;;;12.77;;
3781;SDS011;6881;49.962;7.718;2023-06-22T00:56:40;13.77;;;12.40;;
3781;SDS011;6881;49.962;7.718;2023-06-22T00:59:06;14.07;;;12.47;;
3781;SDS011;6881;49.962;7.718;2023-06-22T01:01:31;12.87;;;11.50;;
3781;SDS011;6881;49.962;7.718;2023-06-22T01:03:57;14.97;;;13.00;;
3781;SDS011;6881;49.962;7.718;2023-06-22T01:06:26;15.70;;;13.63;;
3781;SDS011;6881;49.962;7.718;2023-06-22T01:09:02;15.60;;;13.33;;
3781;SDS011;6881;49.962;7.718;2023-06-22T01:11:41;14.67;;;13.20;;
3781;SDS011;6881;49.962;7.718;2023-06-22T01:17:14;15.20;;;13.47;;
3781;SDS011;6881;49.962;7.718;2023-06-22T01:19:45;15.40;;;13.30;;
3781;SDS011;6881;49.962;7.718;2023-06-22T01:22:20;15.20;;;13.70;;
3781;SDS011;6881;49.962;7.718;2023-06-22T01:30:06;14.30;;;12.70;;
3781;SDS011;6881;49.962;7.718;2023-06-22T01:32:35;16.67;;;13.40;;
3781;SDS011;6881;49.962;7.718;2023-06-22T01:35:03;15.00;;;12.53;;
3781;SDS011;6881;49.962;7.718;2023-06-22T01:37:29;14.63;;;12.83;;
3781;SDS011;6881;49.962;7.718;2023-06-22T01:39:57;16.67;;;12.97;;
3781;SDS011;6881;49.962;7.718;2023-06-22T01:42:23;14.63;;;13.13;;
3781;SDS011;6881;49.962;7.718;2023-06-22T01:44:50;15.77;;;13.77;;
3781;SDS011;6881;49.962;7.718;2023-06-22T01:47:17;14.53;;;13.20;;
3781;SDS011;6881;49.962;7.718;2023-06-22T01:49:42;19.60;;;14.40;;
3781;SDS011;6881;49.962;7.718;2023-06-22T01:52:08;16.00;;;14.27;;
3781;SDS011;6881;49.962;7.718;2023-06-22T01:54:33;13.63;;;12.23;;
3781;SDS011;6881;49.962;7.718;2023-06-22T01:56:59;15.40;;;13.50;;
3781;SDS011;6881;49.962;7.718;2023-06-22T02:02:02;14.77;;;12.53;;
3781;SDS011;6881;49.962;7.718;2023-06-22T02:04:34;15.03;;;13.43;;
3781;SDS011;6881;49.962;7.718;2023-06-22T02:07:04;13.23;;;11.93;;
3781;SDS011;6881;49.962;7.718;2023-06-22T02:09:31;15.67;;;13.07;;
3781;SDS011;6881;49.962;7.718;2023-06-22T02:11:57;16.60;;;12.53;;
3781;SDS011;6881;49.962;7.718;2023-06-22T02:14:23;15.13;;;13.63;;
3781;SDS011;6881;49.962;7.718;2023-06-22T02:16:49;16.83;;;15.07;;
3781;SDS011;6881;49.962;7.718;2023-06-22T02:19:15;17.20;;;14.77;;
3781;SDS011;6881;49.962;7.718;2023-06-22T02:21:41;13.90;;;12.30;;
3781;SDS011;6881;49.962;7.718;2023-06-22T02:24:06;15.50;;;13.73;;
3781;SDS011;6881;49.962;7.718;2023-06-22T02:26:31;15.53;;;13.93;;
3781;SDS011;6881;49.962;7.718;2023-06-22T02:28:57;16.20;;;13.87;;
3781;SDS011;6881;49.962;7.718;2023-06-22T02:31:23;16.20;;;13.23;;
3781;SDS011;6881;49.962;7.718;2023-06-22T02:33:56;14.07;;;12.57;;
3781;SDS011;6881;49.962;7.718;2023-06-22T02:36:23;16.20;;;14.53;;
3781;SDS011;6881;49.962;7.718;2023-06-22T02:38:48;15.40;;;13.90;;
3781;SDS011;6881;49.962;7.718;2023-06-22T02:41:14;17.57;;;13.77;;
3781;SDS011;6881;49.962;7.718;2023-06-22T02:43:43;18.50;;;15.40;;
3781;SDS011;6881;49.962;7.718;2023-06-22T02:46:12;15.33;;;13.73;;
3781;SDS011;6881;49.962;7.718;2023-06-22T02:48:38;15.47;;;13.87;;
3781;SDS011;6881;49.962;7.718;2023-06-22T02:51:06;15.83;;;14.20;;
3781;SDS011;6881;49.962;7.718;2023-06-22T02:53:32;15.53;;;13.20;;
3781;SDS011;6881;49.962;7.718;2023-06-22T02:55:57;15.37;;;13.20;;
3781;SDS011;6881;49.962;7.718;2023-06-22T02:58:22;13.87;;;12.57;;
3781;SDS011;6881;49.962;7.718;2023-06-22T03:00:49;19.00;;;12.90;;
3781;SDS011;6881;49.962;7.718;2023-06-22T03:03:18;15.73;;;13.10;;
3781;SDS011;6881;49.962;7.718;2023-06-22T03:05:43;14.90;;;12.73;;
3781;SDS011;6881;49.962;7.718;2023-06-22T03:08:09;14.67;;;13.17;;
3781;SDS011;6881;49.962;7.718;2023-06-22T03:10:34;15.80;;;12.87;;
3781;SDS011;6881;49.962;7.718;2023-06-22T03:12:59;15.23;;;13.67;;
3781;SDS011;6881;49.962;7.718;2023-06-22T03:15:25;14.47;;;12.87;;
3781;SDS011;6881;49.962;7.718;2023-06-22T03:17:51;14.27;;;12.83;;
3781;SDS011;6881;49.962;7.718;2023-06-22T03:20:16;13.60;;;12.20;;
3781;SDS011;6881;49.962;7.718;2023-06-22T03:22:41;14.40;;;12.50;;
3781;SDS011;6881;49.962;7.718;2023-06-22T03:25:08;14.43;;;11.73;;
3781;SDS011;6881;49.962;7.718;2023-06-22T03:27:38;12.93;;;11.63;;
3781;SDS011;6881;49.962;7.718;2023-06-22T03:30:07;13.43;;;12.00;;
3781;SDS011;6881;49.962;7.718;2023-06-22T03:32:33;17.07;;;12.83;;
3781;SDS011;6881;49.962;7.718;2023-06-22T03:34:59;14.17;;;12.70;;
3781;SDS011;6881;49.962;7.718;2023-06-22T03:37:24;12.53;;;11.23;;
3781;SDS011;6881;49.962;7.718;2023-06-22T03:39:50;16.20;;;12.40;;
3781;SDS011;6881;49.962;7.718;2023-06-22T03:42:16;15.83;;;13.33;;
3781;SDS011;6881;49.962;7.718;2023-06-22T03:44:41;15.93;;;13.63;;
3781;SDS011;6881;49.962;7.718;2023-06-22T03:47:07;14.47;;;13.03;;
3781;SDS011;6881;49.962;7.718;2023-06-22T03:49:32;15.10;;;12.63;;
3781;SDS011;6881;49.962;7.718;2023-06-22T03:51:59;14.80;;;12.73;;
3781;SDS011;6881;49.962;7.718;2023-06-22T03:54:26;15.70;;;14.20;;
3781;SDS011;6881;49.962;7.718;2023-06-22T03:56:51;13.10;;;11.70;;
3781;SDS011;6881;49.962;7.718;2023-06-22T03:59:16;14.70;;;13.20;;
3781;SDS011;6881;49.962;7.718;2023-06-22T04:01:42;14.23;;;12.83;;
3781;SDS011;6881;49.962;7.718;2023-06-22T04:04:08;13.43;;;12.03;;
3781;SDS011;6881;49.962;7.718;2023-06-22T04:06:33;11.23;;;10.10;;
3781;SDS011;6881;49.962;7.718;2023-06-22T04:08:59;12.73;;;11.03;;
3781;SDS011;6881;49.962;7.718;2023-06-22T04:11:25;17.97;;;12.63;;
3781;SDS011;6881;49.962;7.718;2023-06-22T04:13:51;11.50;;;10.30;;
3781;SDS011;6881;49.962;7.718;2023-06-22T04:16:16;11.50;;;10.27;;
3781;SDS011;6881;49.962;7.718;2023-06-22T04:18:42;12.00;;;10.80;;
3781;SDS011;6881;49.962;7.718;2023-06-22T04:21:07;13.27;;;11.10;;
3781;SDS011;6881;49.962;7.718;2023-06-22T04:23:32;11.23;;;10.13;;
3781;SDS011;6881;49.962;7.718;2023-06-22T04:25:57;11.70;;;10.30;;
3781;SDS011;6881;49.962;7.718;2023-06-22T04:28:24;15.93;;;11.90;;
3781;SDS011;6881;49.962;7.718;2023-06-22T04:30:49;13.20;;;10.43;;
3781;SDS011;6881;49.962;7.718;2023-06-22T04:33:15;14.70;;;11.23;;
3781;SDS011;6881;49.962;7.718;2023-06-22T04:35:41;9.93;;;8.93;;
3781;SDS011;6881;49.962;7.718;2023-06-22T04:38:09;12.27;;;10.73;;
3781;SDS011;6881;49.962;7.718;2023-06-22T04:40:35;12.50;;;11.17;;
3781;SDS011;6881;49.962;7.718;2023-06-22T04:43:00;11.77;;;10.43;;
3781;SDS011;6881;49.962;7.718;2023-06-22T04:45:27;10.20;;;9.20;;
3781;SDS011;6881;49.962;7.718;2023-06-22T04:47:53;11.47;;;9.93;;
3781;SDS011;6881;49.962;7.718;2023-06-22T04:50:18;11.40;;;10.23;;
3781;SDS011;6881;49.962;7.718;2023-06-22T04:52:46;11.63;;;10.43;;
3781;SDS011;6881;49.962;7.718;2023-06-22T04:55:11;10.43;;;9.43;;
3781;SDS011;6881;49.962;7.718;2023-06-22T04:57:37;11.87;;;10.40;;
3781;SDS011;6881;49.962;7.718;2023-06-22T05:00:04;11.97;;;10.77;;
3781;SDS011;6881;49.962;7.718;2023-06-22T05:02:37;11.27;;;9.97;;
3781;SDS011;6881;49.962;7.718;2023-06-22T05:05:05;13.23;;;11.27;;
3781;SDS011;6881;49.962;7.718;2023-06-22T05:07:35;12.83;;;11.50;;
3781;SDS011;6881;49.962;7.718;2023-06-22T05:10:01;13.17;;;11.13;;
3781;SDS011;6881;49.962;7.718;2023-06-22T05:12:27;12.27;;;11.07;;
3781;SDS011;6881;49.962;7.718;2023-06-22T05:14:53;13.97;;;11.03;;
3781;SDS011;6881;49.962;7.718;2023-06-22T05:17:19;12.73;;;11.53;;
3781;SDS011;6881;49.962;7.718;2023-06-22T05:19:44;12.33;;;10.80;;
3781;SDS011;6881;49.962;7.718;2023-06-22T05:22:13;11.77;;;10.60;;
3781;SDS011;6881;49.962;7.718;2023-06-22T05:24:42;12.97;;;11.60;;
3781;SDS011;6881;49.962;7.718;2023-06-22T05:27:07;12.40;;;10.13;;
3781;SDS011;6881;49.962;7.718;2023-06-22T05:29:33;11.43;;;10.23;;
3781;SDS011;6881;49.962;7.718;2023-06-22T05:31:58;11.70;;;10.50;;
3781;SDS011;6881;49.962;7.718;2023-06-22T05:34:24;12.50;;;10.70;;
3781;SDS011;6881;49.962;7.718;2023-06-22T05:36:49;17.50;;;12.13;;
3781;SDS011;6881;49.962;7.718;2023-06-22T05:39:14;12.60;;;11.30;;
3781;SDS011;6881;49.962;7.718;2023-06-22T05:41:40;12.70;;;11.50;;
3781;SDS011;6881;49.962;7.718;2023-06-22T05:44:06;13.40;;;12.10;;
3781;SDS011;6881;49.962;7.718;2023-06-22T05:46:31;12.60;;;11.40;;
3781;SDS011;6881;49.962;7.718;2023-06-22T05:48:56;15.90;;;13.03;;
3781;SDS011;6881;49.962;7.718;2023-06-22T05:51:22;15.07;;;13.63;;
3781;SDS011;6881;49.962;7.718;2023-06-22T05:53:47;13.23;;;11.93;;
3781;SDS011;6881;49.962;7.718;2023-06-22T05:56:15;11.57;;;10.43;;
3781;SDS011;6881;49.962;7.718;2023-06-22T05:58:40;13.60;;;11.87;;
3781;SDS011;6881;49.962;7.718;2023-06-22T06:01:06;13.80;;;12.40;;
3781;SDS011;6881;49.962;7.718;2023-06-22T06:03:31;12.03;;;10.90;;
3781;SDS011;6881;49.962;7.718;2023-06-22T06:05:56;14.40;;;13.10;;
3781;SDS011;6881;49.962;7.718;2023-06-22T06:08:22;13.43;;;12.20;;
3781;SDS011;6881;49.962;7.718;2023-06-22T06:10:47;13.90;;;12.37;;
3781;SDS011;6881;49.962;7.718;2023-06-22T06:13:12;13.80;;;12.40;;
3781;SDS011;6881;49.962;7.718;2023-06-22T06:15:38;12.87;;;11.63;;
3781;SDS011;6881;49.962;7.718;2023-06-22T06:18:03;14.20;;;12.90;;
3781;SDS011;6881;49.962;7.718;2023-06-22T06:20:30;14.27;;;12.40;;
3781;SDS011;6881;49.962;7.718;2023-06-22T06:22:56;14.73;;;13.37;;
3781;SDS011;6881;49.962;7.718;2023-06-22T06:25:22;12.70;;;11.43;;
3781;SDS011;6881;49.962;7.718;2023-06-22T06:27:47;13.97;;;12.63;;
3781;SDS011;6881;49.962;7.718;2023-06-22T06:30:15;11.90;;;10.80;;
3781;SDS011;6881;49.962;7.718;2023-06-22T06:32:42;12.73;;;11.43;;
3781;SDS011;6881;49.962;7.718;2023-06-22T06:35:10;13.27;;;12.07;;
3781;SDS011;6881;49.962;7.718;2023-06-22T06:37:37;11.97;;;10.97;;
3781;SDS011;6881;49.962;7.718;2023-06-22T06:40:04;15.03;;;12.87;;
3781;SDS011;6881;49.962;7.718;2023-06-22T06:42:33;12.07;;;10.97;;
3781;SDS011;6881;49.962;7.718;2023-06-22T06:44:58;13.53;;;12.17;;
3781;SDS011;6881;49.962;7.718;2023-06-22T06:47:23;12.80;;;11.53;;
3781;SDS011;6881;49.962;7.718;2023-06-22T06:49:49;12.27;;;11.07;;
3781;SDS011;6881;49.962;7.718;2023-06-22T06:52:14;12.43;;;11.13;;
3781;SDS011;6881;49.962;7.718;2023-06-22T06:54:39;11.20;;;10.10;;
3781;SDS011;6881;49.962;7.718;2023-06-22T06:57:06;12.30;;;11.30;;
3781;SDS011;6881;49.962;7.718;2023-06-22T06:59:32;11.43;;;10.43;;
3781;SDS011;6881;49.962;7.718;2023-06-22T07:01:57;10.83;;;9.80;;
3781;SDS011;6881;49.962;7.718;2023-06-22T07:04:22;11.50;;;10.50;;
3781;SDS011;6881;49.962;7.718;2023-06-22T07:06:48;11.97;;;10.97;;
3781;SDS011;6881;49.962;7.718;2023-06-22T07:09:13;12.47;;;11.27;;
3781;SDS011;6881;49.962;7.718;2023-06-22T07:11:38;11.80;;;10.60;;
3781;SDS011;6881;49.962;7.718;2023-06-22T07:14:03;9.93;;;8.93;;
3781;SDS011;6881;49.962;7.718;2023-06-22T07:16:29;11.33;;;10.37;;
3781;SDS011;6881;49.962;7.718;2023-06-22T07:18:56;12.83;;;11.53;;
3781;SDS011;6881;49.962;7.718;2023-06-22T07:21:21;11.60;;;10.50;;
3781;SDS011;6881;49.962;7.718;2023-06-22T07:23:46;11.10;;;10.10;;
3781;SDS011;6881;49.962;7.718;2023-06-22T07:26:12;10.97;;;10.00;;
3781;SDS011;6881;49.962;7.718;2023-06-22T07:28:37;13.90;;;11.03;;
3781;SDS011;6881;49.962;7.718;2023-06-22T07:31:05;10.87;;;9.97;;
3781;SDS011;6881;49.962;7.718;2023-06-22T07:33:30;11.30;;;9.60;;
3781;SDS011;6881;49.962;7.718;2023-06-22T07:35:56;10.27;;;9.37;;
3781;SDS011;6881;49.962;7.718;2023-06-22T07:38:21;12.20;;;11.20;;
3781;SDS011;6881;49.962;7.718;2023-06-22T07:40:46;14.30;;;11.23;;
3781;SDS011;6881;49.962;7.718;2023-06-22T07:43:12;10.40;;;9.50;;
3781;SDS011;6881;49.962;7.718;2023-06-22T07:45:37;11.50;;;10.47;;
3781;SDS011;6881;49.962;7.718;2023-06-22T07:48:05;11.30;;;10.30;;
3781;SDS011;6881;49.962;7.718;2023-06-22T07:50:30;10.70;;;9.83;;
3781;SDS011;6881;49.962;7.718;2023-06-22T07:52:56;10.83;;;9.90;;
3781;SDS011;6881;49.962;7.718;2023-06-22T07:55:21;10.20;;;9.27;;
3781;SDS011;6881;49.962;7.718;2023-06-22T07:57:47;11.53;;;10.50;;
3781;SDS011;6881;49.962;7.718;2023-06-22T08:00:13;13.33;;;12.10;;
3781;SDS011;6881;49.962;7.718;2023-06-22T08:02:40;11.50;;;10.43;;
3781;SDS011;6881;49.962;7.718;2023-06-22T08:05:06;11.43;;;10.50;;
3781;SDS011;6881;49.962;7.718;2023-06-22T08:07:33;11.27;;;10.27;;
3781;SDS011;6881;49.962;7.718;2023-06-22T08:10:00;10.87;;;9.87;;
3781;SDS011;6881;49.962;7.718;2023-06-22T08:12:25;11.17;;;10.17;;
3781;SDS011;6881;49.962;7.718;2023-06-22T08:14:50;10.80;;;9.90;;
3781;SDS011;6881;49.962;7.718;2023-06-22T08:17:16;11.03;;;10.03;;
3781;SDS011;6881;49.962;7.718;2023-06-22T08:19:41;12.40;;;11.30;;
3781;SDS011;6881;49.962;7.718;2023-06-22T08:22:06;11.33;;;10.33;;
3781;SDS011;6881;49.962;7.718;2023-06-22T08:24:32;12.17;;;11.00;;
3781;SDS011;6881;49.962;7.718;2023-06-22T08:26:57;11.40;;;10.37;;
3781;SDS011;6881;49.962;7.718;2023-06-22T08:29:22;12.20;;;11.00;;
3781;SDS011;6881;49.962;7.718;2023-06-22T08:31:47;11.73;;;10.53;;
3781;SDS011;6881;49.962;7.718;2023-06-22T08:34:13;11.13;;;10.07;;
3781;SDS011;6881;49.962;7.718;2023-06-22T08:36:38;12.07;;;11.00;;
3781;SDS011;6881;49.962;7.718;2023-06-22T08:39:09;10.43;;;9.50;;
3781;SDS011;6881;49.962;7.718;2023-06-22T08:41:35;12.20;;;11.03;;
3781;SDS011;6881;49.962;7.718;2023-06-22T08:44:00;10.87;;;9.93;;
3781;SDS011;6881;49.962;7.718;2023-06-22T08:46:25;11.60;;;10.50;;
3781;SDS011;6881;49.962;7.718;2023-06-22T08:48:55;13.07;;;11.93;;
3781;SDS011;6881;49.962;7.718;2023-06-22T08:51:22;11.97;;;10.77;;
3781;SDS011;6881;49.962;7.718;2023-06-22T08:53:47;12.90;;;11.60;;
3781;SDS011;6881;49.962;7.718;2023-06-22T08:56:12;13.60;;;12.17;;
3781;SDS011;6881;49.962;7.718;2023-06-22T08:58:38;12.50;;;11.40;;
3781;SDS011;6881;49.962;7.718;2023-06-22T09:01:03;13.40;;;12.10;;
3781;SDS011;6881;49.962;7.718;2023-06-22T09:03:29;12.63;;;11.47;;
3781;SDS011;6881;49.962;7.718;2023-06-22T09:05:54;12.90;;;11.70;;
3781;SDS011;6881;49.962;7.718;2023-06-22T09:08:20;10.70;;;9.80;;
3781;SDS011;6881;49.962;7.718;2023-06-22T09:10:46;12.33;;;11.23;;
3781;SDS011;6881;49.962;7.718;2023-06-22T09:13:11;12.27;;;11.07;;
3781;SDS011;6881;49.962;7.718;2023-06-22T09:15:36;12.80;;;11.00;;
3781;SDS011;6881;49.962;7.718;2023-06-22T09:18:02;12.63;;;11.43;;
3781;SDS011;6881;49.962;7.718;2023-06-22T09:20:27;11.77;;;10.67;;
3781;SDS011;6881;49.962;7.718;2023-06-22T09:22:52;13.00;;;11.80;;
3781;SDS011;6881;49.962;7.718;2023-06-22T09:25:18;13.93;;;12.63;;
3781;SDS011;6881;49.962;7.718;2023-06-22T09:27:45;13.33;;;12.03;;
3781;SDS011;6881;49.962;7.718;2023-06-22T09:30:11;13.43;;;11.90;;
3781;SDS011;6881;49.962;7.718;2023-06-22T09:32:36;12.47;;;11.30;;
3781;SDS011;6881;49.962;7.718;2023-06-22T09:35:03;12.77;;;11.60;;
3781;SDS011;6881;49.962;7.718;2023-06-22T09:37:30;13.07;;;11.77;;
3781;SDS011;6881;49.962;7.718;2023-06-22T09:39:56;13.17;;;11.77;;
3781;SDS011;6881;49.962;7.718;2023-06-22T09:42:21;11.93;;;10.83;;
3781;SDS011;6881;49.962;7.718;2023-06-22T09:44:46;12.40;;;11.20;;
3781;SDS011;6881;49.962;7.718;2023-06-22T09:47:11;13.20;;;11.87;;
3781;SDS011;6881;49.962;7.718;2023-06-22T09:49:37;12.87;;;11.73;;
3781;SDS011;6881;49.962;7.718;2023-06-22T09:52:02;12.07;;;10.97;;
3781;SDS011;6881;49.962;7.718;2023-06-22T09:54:27;12.40;;;11.20;;
3781;SDS011;6881;49.962;7.718;2023-06-22T09:56:53;11.17;;;10.07;;
3781;SDS011;6881;49.962;7.718;2023-06-22T09:59:18;12.10;;;11.10;;
3781;SDS011;6881;49.962;7.718;2023-06-22T10:01:43;12.50;;;11.30;;
3781;SDS011;6881;49.962;7.718;2023-06-22T10:04:09;13.00;;;11.80;;
3781;SDS011;6881;49.962;7.718;2023-06-22T10:06:34;13.60;;;12.20;;
3781;SDS011;6881;49.962;7.718;2023-06-22T10:08:59;12.07;;;11.07;;
3781;SDS011;6881;49.962;7.718;2023-06-22T10:11:24;13.30;;;12.10;;
3781;SDS011;6881;49.962;7.718;2023-06-22T10:13:54;13.10;;;11.83;;
3781;SDS011;6881;49.962;7.718;2023-06-22T10:16:19;14.17;;;12.80;;
3781;SDS011;6881;49.962;7.718;2023-06-22T10:18:44;14.30;;;13.00;;
3781;SDS011;6881;49.962;7.718;2023-06-22T10:21:10;14.70;;;13.20;;
3781;SDS011;6881;49.962;7.718;2023-06-22T10:23:35;15.63;;;14.03;;
3781;SDS011;6881;49.962;7.718;2023-06-22T10:26:00;13.37;;;12.17;;
3781;SDS011;6881;49.962;7.718;2023-06-22T10:28:26;14.37;;;13.13;;
3781;SDS011;6881;49.962;7.718;2023-06-22T10:30:51;14.73;;;13.30;;
3781;SDS011;6881;49.962;7.718;2023-06-22T10:33:16;14.57;;;13.40;;
3781;SDS011;6881;49.962;7.718;2023-06-22T10:35:42;12.77;;;11.57;;
3781;SDS011;6881;49.962;7.718;2023-06-22T10:38:07;13.40;;;12.07;;
3781;SDS011;6881;49.962;7.718;2023-06-22T10:40:33;13.13;;;11.93;;
3781;SDS011;6881;49.962;7.718;2023-06-22T10:42:58;12.27;;;11.17;;
3781;SDS011;6881;49.962;7.718;2023-06-22T10:45:24;15.50;;;10.90;;
3781;SDS011;6881;49.962;7.718;2023-06-22T10:47:49;10.47;;;9.57;;
3781;SDS011;6881;49.962;7.718;2023-06-22T10:50:15;10.40;;;9.43;;
3781;SDS011;6881;49.962;7.718;2023-06-22T10:52:40;10.67;;;9.60;;
3781;SDS011;6881;49.962;7.718;2023-06-22T10:55:08;10.63;;;9.57;;
3781;SDS011;6881;49.962;7.718;2023-06-22T10:57:34;11.10;;;10.07;;
3781;SDS011;6881;49.962;7.718;2023-06-22T11:00:00;11.60;;;10.40;;
3781;SDS011;6881;49.962;7.718;2023-06-22T11:02:25;11.07;;;10.10;;
3781;SDS011;6881;49.962;7.718;2023-06-22T11:04:53;11.37;;;10.47;;
3781;SDS011;6881;49.962;7.718;2023-06-22T11:07:18;13.00;;;11.80;;
3781;SDS011;6881;49.962;7.718;2023-06-22T11:09:43;12.40;;;11.17;;
3781;SDS011;6881;49.962;7.718;2023-06-22T11:12:09;12.47;;;11.37;;
3781;SDS011;6881;49.962;7.718;2023-06-22T11:14:34;11.40;;;10.40;;
3781;SDS011;6881;49.962;7.718;2023-06-22T11:16:59;13.00;;;11.67;;
3781;SDS011;6881;49.962;7.718;2023-06-22T11:19:25;11.20;;;10.30;;
3781;SDS011;6881;49.962;7.718;2023-06-22T11:21:50;10.77;;;9.93;;
3781;SDS011;6881;49.962;7.718;2023-06-22T11:24:16;11.70;;;10.70;;
3781;SDS011;6881;49.962;7.718;2023-06-22T11:26:41;10.88;;;9.93;;
3781;SDS011;6881;49.962;7.718;2023-06-22T11:29:07;11.15;;;10.13;;
3781;SDS011;6881;49.962;7.718;2023-06-22T11:31:33;12.40;;;11.15;;
3781;SDS011;6881;49.962;7.718;2023-06-22T11:33:59;11.85;;;10.73;;
3781;SDS011;6881;49.962;7.718;2023-06-22T11:36:24;11.43;;;10.33;;
3781;SDS011;6881;49.962;7.718;2023-06-22T11:38:50;11.70;;;10.83;;
3781;SDS011;6881;49.962;7.718;2023-06-22T11:41:16;11.53;;;10.40;;
3781;SDS011;6881;49.962;7.718;2023-06-22T11:43:41;12.13;;;11.03;;
3781;SDS011;6881;49.962;7.718;2023-06-22T11:46:07;10.77;;;9.80;;
3781;SDS011;6881;49.962;7.718;2023-06-22T11:48:32;11.38;;;10.27;;
3781;SDS011;6881;49.962;7.718;2023-06-22T11:50:57;11.25;;;10.35;;
3781;SDS011;6881;49.962;7.718;2023-06-22T11:53:24;10.90;;;9.93;;
3781;SDS011;6881;49.962;7.718;2023-06-22T11:55:51;10.32;;;9.48;;
3781;SDS011;6881;49.962;7.718;2023-06-22T11:58:17;12.80;;;11.07;;
3781;SDS011;6881;49.962;7.718;2023-06-22T12:00:42;10.80;;;9.90;;
3781;SDS011;6881;49.962;7.718;2023-06-22T12:03:08;10.05;;;9.10;;
3781;SDS011;6881;49.962;7.718;2023-06-22T12:05:34;12.20;;;10.85;;
3781;SDS011;6881;49.962;7.718;2023-06-22T12:07:59;10.75;;;9.82;;
3781;SDS011;6881;49.962;7.718;2023-06-22T12:10:25;11.15;;;10.18;;
3781;SDS011;6881;49.962;7.718;2023-06-22T12:12:51;11.10;;;10.10;;
3781;SDS011;6881;49.962;7.718;2023-06-22T12:15:16;11.35;;;10.43;;
3781;SDS011;6881;49.962;7.718;2023-06-22T12:17:41;11.55;;;10.45;;
3781;SDS011;6881;49.962;7.718;2023-06-22T12:20:07;11.10;;;10.10;;
3781;SDS011;6881;49.962;7.718;2023-06-22T12:22:33;10.80;;;9.83;;
3781;SDS011;6881;49.962;7.718;2023-06-22T12:24:58;10.47;;;9.47;;
3781;SDS011;6881;49.962;7.718;2023-06-22T12:27:24;10.65;;;8.73;;
3781;SDS011;6881;49.962;7.718;2023-06-22T12:29:50;9.73;;;8.88;;
3781;SDS011;6881;49.962;7.718;2023-06-22T12:32:15;10.23;;;9.40;;
3781;SDS011;6881;49.962;7.718;2023-06-22T12:34:41;10.38;;;9.20;;
3781;SDS011;6881;49.962;7.718;2023-06-22T12:37:07;9.63;;;8.90;;
3781;SDS011;6881;49.962;7.718;2023-06-22T12:39:32;11.82;;;10.82;;
3781;SDS011;6881;49.962;7.718;2023-06-22T12:41:58;12.52;;;11.43;;
3781;SDS011;6881;49.962;7.718;2023-06-22T12:44:23;11.07;;;8.68;;
3781;SDS011;6881;49.962;7.718;2023-06-22T12:46:48;8.95;;;8.13;;
3781;SDS011;6881;49.962;7.718;2023-06-22T12:49:14;10.23;;;8.70;;
3781;SDS011;6881;49.962;7.718;2023-06-22T12:51:39;9.00;;;8.20;;
3781;SDS011;6881;49.962;7.718;2023-06-22T12:54:07;10.20;;;9.30;;
3781;SDS011;6881;49.962;7.718;2023-06-22T12:56:32;10.65;;;9.65;;
3781;SDS011;6881;49.962;7.718;2023-06-22T12:58:58;10.68;;;9.65;;
3781;SDS011;6881;49.962;7.718;2023-06-22T13:01:24;9.10;;;8.20;;
3781;SDS011;6881;49.962;7.718;2023-06-22T13:03:49;9.75;;;8.90;;
3781;SDS011;6881;49.962;7.718;2023-06-22T13:06:15;10.13;;;9.13;;
3781;SDS011;6881;49.962;7.718;2023-06-22T13:08:40;10.80;;;9.82;;
3781;SDS011;6881;49.962;7.718;2023-06-22T13:11:05;13.80;;;9.13;;
3781;SDS011;6881;49.962;7.718;2023-06-22T13:13:31;9.37;;;8.57;;
3781;SDS011;6881;49.962;7.718;2023-06-22T13:15:56;10.97;;;9.97;;
3781;SDS011;6881;49.962;7.718;2023-06-22T13:18:21;11.33;;;8.40;;
3781;SDS011;6881;49.962;7.718;2023-06-22T13:20:47;9.90;;;9.00;;
3781;SDS011;6881;49.962;7.718;2023-06-22T13:23:12;10.83;;;9.87;;
3781;SDS011;6881;49.962;7.718;2023-06-22T13:25:37;9.30;;;8.40;;
3781;SDS011;6881;49.962;7.718;2023-06-22T13:28:03;10.07;;;9.13;;
3781;SDS011;6881;49.962;7.718;2023-06-22T13:30:28;10.63;;;9.43;;
3781;SDS011;6881;49.962;7.718;2023-06-22T13:32:54;13.63;;;8.83;;
3781;SDS011;6881;49.962;7.718;2023-06-22T13:35:19;9.00;;;8.20;;
3781;SDS011;6881;49.962;7.718;2023-06-22T13:37:44;10.40;;;9.50;;
3781;SDS011;6881;49.962;7.718;2023-06-22T13:40:10;11.10;;;8.80;;
3781;SDS011;6881;49.962;7.718;2023-06-22T13:42:35;10.50;;;9.40;;
3781;SDS011;6881;49.962;7.718;2023-06-22T13:45:01;13.03;;;8.50;;
3781;SDS011;6881;49.962;7.718;2023-06-22T13:47:27;9.70;;;8.70;;
3781;SDS011;6881;49.962;7.718;2023-06-22T13:49:52;12.73;;;8.57;;
3781;SDS011;6881;49.962;7.718;2023-06-22T13:52:17;8.93;;;7.20;;
3781;SDS011;6881;49.962;7.718;2023-06-22T13:54:43;9.63;;;8.50;;
3781;SDS011;6881;49.962;7.718;2023-06-22T13:57:08;10.50;;;7.70;;
3781;SDS011;6881;49.962;7.718;2023-06-22T13:59:34;12.07;;;8.80;;
3781;SDS011;6881;49.962;7.718;2023-06-22T14:01:59;9.60;;;8.37;;
3781;SDS011;6881;49.962;7.718;2023-06-22T14:04:25;11.43;;;7.43;;
3781;SDS011;6881;49.962;7.718;2023-06-22T14:06:50;10.83;;;8.53;;
3781;SDS011;6881;49.962;7.718;2023-06-22T14:09:15;7.80;;;7.00;;
3781;SDS011;6881;49.962;7.718;2023-06-22T14:11:41;12.60;;;7.53;;
3781;SDS011;6881;49.962;7.718;2023-06-22T14:14:06;9.23;;;4.67;;
3781;SDS011;6881;49.962;7.718;2023-06-22T14:16:31;6.90;;;4.80;;
3781;SDS011;6881;49.962;7.718;2023-06-22T14:18:57;7.60;;;5.00;;
3781;SDS011;6881;49.962;7.718;2023-06-22T14:21:22;6.50;;;4.73;;
3781;SDS011;6881;49.962;7.718;2023-06-22T14:23:47;9.90;;;5.07;;
3781;SDS011;6881;49.962;7.718;2023-06-22T14:26:15;7.97;;;5.40;;
3781;SDS011;6881;49.962;7.718;2023-06-22T14:28:42;9.00;;;5.97;;
3781;SDS011;6881;49.962;7.718;2023-06-22T14:31:12;7.83;;;4.70;;
3781;SDS011;6881;49.962;7.718;2023-06-22T14:33:37;7.50;;;5.57;;
3781;SDS011;6881;49.962;7.718;2023-06-22T14:36:03;11.20;;;5.50;;
3781;SDS011;6881;49.962;7.718;2023-06-22T14:38:28;9.57;;;5.43;;
3781;SDS011;6881;49.962;7.718;2023-06-22T14:40:53;9.97;;;5.37;;
3781;SDS011;6881;49.962;7.718;2023-06-22T14:43:19;7.43;;;5.53;;
3781;SDS011;6881;49.962;7.718;2023-06-22T14:45:44;6.47;;;5.47;;
3781;SDS011;6881;49.962;7.718;2023-06-22T14:48:09;6.70;;;4.80;;
3781;SDS011;6881;49.962;7.718;2023-06-22T14:50:35;8.47;;;5.40;;
3781;SDS011;6881;49.962;7.718;2023-06-22T14:53:00;6.60;;;4.77;;
3781;SDS011;6881;49.962;7.718;2023-06-22T14:55:25;9.17;;;6.40;;